createdAt,value
2022-09-26T00:00:00.884Z,75.73
2022-09-26T00:01:01.753Z,51.08
2022-09-26T00:02:01.242Z,55.91
2022-09-26T00:03:01.411Z,65.26
2022-09-26T00:04:01.585Z,74.93
2022-09-26T00:05:01.761Z,53.50
2022-09-26T00:06:01.925Z,55.43
2022-09-26T00:07:03.708Z,51.56
2022-09-26T00:08:02.325Z,54.79
2022-09-26T00:09:03.216Z,55.11
2022-09-26T00:10:02.600Z,59.78
2022-09-26T00:11:02.756Z,59.30
2022-09-26T00:12:02.908Z,59.62
2022-09-26T00:13:03.052Z,62.68
2022-09-26T00:14:03.246Z,62.52
2022-09-26T00:15:04.193Z,60.42
2022-09-26T00:16:03.609Z,57.69
2022-09-26T00:17:03.822Z,57.36
2022-09-26T00:18:04.694Z,74.44
2022-09-26T00:19:05.245Z,57.20
2022-09-26T00:20:04.419Z,55.75
2022-09-26T00:21:04.713Z,62.20
2022-09-26T00:22:04.735Z,73.48
2022-09-26T00:23:04.868Z,54.30
2022-09-26T00:24:05.004Z,58.17
2022-09-26T00:25:05.164Z,59.62
2022-09-26T00:26:05.709Z,63.16
2022-09-26T00:27:05.501Z,59.30
2022-09-26T00:28:05.649Z,61.87
2022-09-26T00:29:05.848Z,59.46
2022-09-26T00:30:06.041Z,62.68
2022-09-26T00:31:06.765Z,62.04
2022-09-26T00:32:06.388Z,54.14
2022-09-26T00:33:06.546Z,60.10
2022-09-26T00:34:06.696Z,59.78
2022-09-26T00:35:07.215Z,77.83
2022-09-26T00:36:07.213Z,69.13
2022-09-26T00:37:07.115Z,55.27
2022-09-26T00:38:07.256Z,61.07
2022-09-26T00:39:07.387Z,64.13
2022-09-26T00:40:07.533Z,59.46
2022-09-26T00:41:07.667Z,53.33
2022-09-26T00:42:08.820Z,60.75
2022-09-26T00:43:07.924Z,59.30
2022-09-26T00:44:08.053Z,57.52
2022-09-26T00:45:08.222Z,75.89
2022-09-26T00:46:08.430Z,57.36
2022-09-26T00:47:08.632Z,59.94
2022-09-26T00:48:08.774Z,56.40
2022-09-26T00:49:08.975Z,55.91
2022-09-26T00:50:09.124Z,55.59
2022-09-26T00:51:10.359Z,77.18
2022-09-26T00:52:09.513Z,58.65
2022-09-26T00:53:10.204Z,60.26
2022-09-26T00:54:09.889Z,74.12
2022-09-26T00:55:10.708Z,57.52
2022-09-26T00:56:10.224Z,54.62
2022-09-26T00:57:10.413Z,59.78
2022-09-26T00:58:10.564Z,57.36
2022-09-26T00:59:10.729Z,71.87
2022-09-26T01:00:10.880Z,58.33
2022-09-26T01:01:11.145Z,70.09
2022-09-26T01:02:11.373Z,55.43
2022-09-26T01:03:11.433Z,77.67
2022-09-26T01:04:11.570Z,63.49
2022-09-26T01:05:11.733Z,59.14
2022-09-26T01:06:11.890Z,58.01
2022-09-26T01:07:13.049Z,54.30
2022-09-26T01:08:12.162Z,54.62
2022-09-26T01:09:12.423Z,52.05
2022-09-26T01:10:13.210Z,71.38
2022-09-26T01:11:16.778Z,57.52
2022-09-26T01:12:14.223Z,62.04
2022-09-26T01:13:13.085Z,55.27
2022-09-26T01:14:13.257Z,52.37
2022-09-26T01:15:14.216Z,74.60
2022-09-26T01:16:14.269Z,77.99
2022-09-26T01:17:13.828Z,55.43
2022-09-26T01:18:13.978Z,56.24
2022-09-26T01:19:14.261Z,59.94
2022-09-26T01:20:14.331Z,58.65
2022-09-26T01:21:14.485Z,59.78
2022-09-26T01:22:14.636Z,61.55
2022-09-26T01:23:14.762Z,73.15
2022-09-26T01:24:14.914Z,75.09
2022-09-26T01:25:15.054Z,53.66
2022-09-26T01:26:15.200Z,58.33
2022-09-26T01:27:15.327Z,61.87
2022-09-26T01:28:16.214Z,58.65
2022-09-26T01:29:15.689Z,78.15
2022-09-26T01:30:16.226Z,62.68
2022-09-26T01:31:16.005Z,75.25
2022-09-26T01:32:16.719Z,57.52
2022-09-26T01:33:16.317Z,57.52
2022-09-26T01:34:17.217Z,76.22
2022-09-26T01:35:16.717Z,76.54
2022-09-26T01:36:16.829Z,57.04
2022-09-26T01:37:17.147Z,77.83
2022-09-26T01:38:18.212Z,65.58
2022-09-26T01:39:17.451Z,73.64
2022-09-26T01:40:17.666Z,59.62
2022-09-26T01:41:17.714Z,58.81
2022-09-26T01:42:17.843Z,56.07
2022-09-26T01:43:17.966Z,56.24
2022-09-26T01:44:18.720Z,78.96
2022-09-26T01:45:18.335Z,64.61
2022-09-26T01:46:18.553Z,57.36
2022-09-26T01:47:19.220Z,63.00
2022-09-26T01:48:18.739Z,62.52
2022-09-26T01:49:18.881Z,63.16
2022-09-26T01:50:19.048Z,76.22
2022-09-26T01:51:19.725Z,75.73
2022-09-26T01:52:19.431Z,55.27
2022-09-26T01:53:19.586Z,69.77
2022-09-26T01:54:19.727Z,72.67
2022-09-26T01:55:19.897Z,81.05
2022-09-26T01:56:20.052Z,75.25
2022-09-26T01:57:20.242Z,74.12
2022-09-26T01:58:20.394Z,53.33
2022-09-26T01:59:20.535Z,59.78
2022-09-26T02:00:20.697Z,75.73
2022-09-26T02:01:20.896Z,59.46
2022-09-26T02:02:21.152Z,62.36
2022-09-26T02:03:22.225Z,76.05
2022-09-26T02:04:21.481Z,61.23
2022-09-26T02:05:21.628Z,54.30
2022-09-26T02:06:22.726Z,56.40
2022-09-26T02:07:22.231Z,69.61
2022-09-26T02:08:22.232Z,51.88
2022-09-26T02:09:23.238Z,80.08
2022-09-26T02:10:22.514Z,76.38
2022-09-26T02:11:22.656Z,77.02
2022-09-26T02:12:22.823Z,77.99
2022-09-26T02:13:23.035Z,70.58
2022-09-26T02:14:23.197Z,54.46
2022-09-26T02:15:23.364Z,70.74
2022-09-26T02:16:23.558Z,59.46
2022-09-26T02:17:23.631Z,73.96
2022-09-26T02:18:23.787Z,76.38
2022-09-26T02:19:24.239Z,58.01
2022-09-26T02:20:24.121Z,64.61
2022-09-26T02:21:24.362Z,76.54
2022-09-26T02:22:24.481Z,76.86
2022-09-26T02:23:24.722Z,78.47
2022-09-26T02:24:24.984Z,76.70
2022-09-26T02:25:25.105Z,58.49
2022-09-26T02:26:25.245Z,75.73
2022-09-26T02:27:25.366Z,75.89
2022-09-26T02:28:25.552Z,75.25
2022-09-26T02:29:25.662Z,76.70
2022-09-26T02:30:25.793Z,79.28
2022-09-26T02:31:26.022Z,57.85
2022-09-26T02:32:26.169Z,58.49
2022-09-26T02:33:26.323Z,76.22
2022-09-26T02:34:26.443Z,74.44
2022-09-26T02:35:26.568Z,77.83
2022-09-26T02:36:27.231Z,82.02
2022-09-26T02:37:26.834Z,57.69
2022-09-26T02:38:27.051Z,64.13
2022-09-26T02:39:27.155Z,75.73
2022-09-26T02:40:27.764Z,74.60
2022-09-26T02:41:27.658Z,72.83
2022-09-26T02:42:27.792Z,70.90
2022-09-26T02:43:28.729Z,79.28
2022-09-26T02:44:28.731Z,80.08
2022-09-26T02:45:28.405Z,80.24
2022-09-26T02:46:28.580Z,74.93
2022-09-26T02:47:28.711Z,55.91
2022-09-26T02:48:28.886Z,75.73
2022-09-26T02:49:29.042Z,78.47
2022-09-26T02:50:29.209Z,79.12
2022-09-26T02:51:29.351Z,77.18
2022-09-26T02:52:29.491Z,77.18
2022-09-26T02:53:29.646Z,75.89
2022-09-26T02:54:30.735Z,69.93
2022-09-26T02:55:30.739Z,80.08
2022-09-26T02:56:30.128Z,77.18
2022-09-26T02:57:30.284Z,75.41
2022-09-26T02:58:30.473Z,77.34
2022-09-26T02:59:30.639Z,75.73
2022-09-26T03:00:30.783Z,77.83
2022-09-26T03:01:31.297Z,59.62
2022-09-26T03:02:32.737Z,76.38
2022-09-26T03:03:31.380Z,77.02
2022-09-26T03:04:31.607Z,76.86
2022-09-26T03:05:31.769Z,76.05
2022-09-26T03:06:31.925Z,75.57
2022-09-26T03:07:32.063Z,61.39
2022-09-26T03:08:32.221Z,78.63
2022-09-26T03:09:32.347Z,80.57
2022-09-26T03:10:33.598Z,85.56
2022-09-26T03:11:32.718Z,78.31
2022-09-26T03:12:32.841Z,79.28
2022-09-26T03:13:33.075Z,79.76
2022-09-26T03:14:33.333Z,78.31
2022-09-26T03:15:33.492Z,75.57
2022-09-26T03:16:33.651Z,77.34
2022-09-26T03:17:33.817Z,81.53
2022-09-26T03:18:34.742Z,81.69
2022-09-26T03:19:34.762Z,77.50
2022-09-26T03:20:34.279Z,80.57
2022-09-26T03:21:36.975Z,77.83
2022-09-26T03:22:35.637Z,80.08
2022-09-26T03:23:34.889Z,81.69
2022-09-26T03:24:35.041Z,81.53
2022-09-26T03:25:35.193Z,76.70
2022-09-26T03:26:35.316Z,80.24
2022-09-26T03:27:35.461Z,77.34
2022-09-26T03:28:38.012Z,79.76
2022-09-26T03:29:36.740Z,81.86
2022-09-26T03:30:36.744Z,81.21
2022-09-26T03:31:36.167Z,79.76
2022-09-26T03:32:36.747Z,81.37
2022-09-26T03:33:36.395Z,82.66
2022-09-26T03:34:37.247Z,79.28
2022-09-26T03:35:36.731Z,80.89
2022-09-26T03:36:37.744Z,80.24
2022-09-26T03:37:37.115Z,81.69
2022-09-26T03:38:37.254Z,84.27
2022-09-26T03:39:37.422Z,80.08
2022-09-26T03:40:37.662Z,81.37
2022-09-26T03:41:37.706Z,81.05
2022-09-26T03:42:37.858Z,79.44
2022-09-26T03:43:38.747Z,82.02
2022-09-26T03:44:38.160Z,82.82
2022-09-26T03:45:38.358Z,81.05
2022-09-26T03:46:40.154Z,79.12
2022-09-26T03:47:39.609Z,78.47
2022-09-26T03:48:38.722Z,80.57
2022-09-26T03:49:39.749Z,79.44
2022-09-26T03:50:38.998Z,80.08
2022-09-26T03:51:39.155Z,79.28
2022-09-26T03:52:39.314Z,80.24
2022-09-26T03:53:40.256Z,77.99
2022-09-26T03:54:39.623Z,77.67
2022-09-26T03:55:39.793Z,80.08
2022-09-26T03:56:40.010Z,80.57
2022-09-26T03:57:40.264Z,79.60
2022-09-26T03:58:40.385Z,78.96
2022-09-26T03:59:40.536Z,80.24
2022-09-26T04:00:40.778Z,80.08
2022-09-26T04:01:40.810Z,79.28
2022-09-26T04:02:41.294Z,80.24
2022-09-26T04:03:43.179Z,85.40
2022-09-26T04:04:42.421Z,79.60
2022-09-26T04:05:41.581Z,81.21
2022-09-26T04:06:41.720Z,82.50
2022-09-26T04:07:41.884Z,79.92
2022-09-26T04:08:42.036Z,82.98
2022-09-26T04:09:42.213Z,79.76
2022-09-26T04:10:43.285Z,82.34
2022-09-26T04:11:42.545Z,78.63
2022-09-26T04:12:42.714Z,80.57
2022-09-26T04:13:52.545Z,79.28
2022-09-26T04:14:44.996Z,82.02
2022-09-26T04:15:43.239Z,77.67
2022-09-26T04:16:43.416Z,79.44
2022-09-26T04:17:43.609Z,79.92
2022-09-26T04:18:44.751Z,80.41
2022-09-26T04:19:43.868Z,76.86
2022-09-26T04:20:44.048Z,82.02
2022-09-26T04:21:44.216Z,79.92
2022-09-26T04:22:45.261Z,80.24
2022-09-26T04:23:44.526Z,78.15
2022-09-26T04:24:44.702Z,82.18
2022-09-26T04:25:44.853Z,78.79
2022-09-26T04:26:45.761Z,80.73
2022-09-26T04:27:45.137Z,82.66
2022-09-26T04:28:45.325Z,81.53
2022-09-26T04:29:45.461Z,76.70
2022-09-26T04:30:46.262Z,80.08
2022-09-26T04:31:45.870Z,78.96
2022-09-26T04:32:45.969Z,79.60
2022-09-26T04:33:46.116Z,77.67
2022-09-26T04:34:46.759Z,78.47
2022-09-26T04:35:46.381Z,81.69
2022-09-26T04:36:47.527Z,78.31
2022-09-26T04:37:46.736Z,80.89
2022-09-26T04:38:47.760Z,80.08
2022-09-26T04:39:47.096Z,79.60
2022-09-26T04:40:47.829Z,79.76
2022-09-26T04:41:47.358Z,81.21
2022-09-26T04:42:47.484Z,80.41
2022-09-26T04:43:47.629Z,79.60
2022-09-26T04:44:47.776Z,80.08
2022-09-26T04:45:48.826Z,78.96
2022-09-26T04:46:48.217Z,80.57
2022-09-26T04:47:48.328Z,81.21
2022-09-26T04:48:49.262Z,79.44
2022-09-26T04:49:48.644Z,77.67
2022-09-26T04:50:48.796Z,78.63
2022-09-26T04:51:49.763Z,82.34
2022-09-26T04:52:49.131Z,79.92
2022-09-26T04:53:49.267Z,80.24
2022-09-26T04:54:49.388Z,80.24
2022-09-26T04:55:49.527Z,79.92
2022-09-26T04:56:49.667Z,78.96
2022-09-26T04:57:50.280Z,82.50
2022-09-26T04:58:50.049Z,81.05
2022-09-26T04:59:50.183Z,78.15
2022-09-26T05:00:51.393Z,82.18
2022-09-26T05:01:50.634Z,79.12
2022-09-26T05:02:50.768Z,82.18
2022-09-26T05:03:50.927Z,79.12
2022-09-26T05:04:51.070Z,79.28
2022-09-26T05:05:51.208Z,80.41
2022-09-26T05:06:51.386Z,79.60
2022-09-26T05:07:51.511Z,78.15
2022-09-26T05:08:51.753Z,78.15
2022-09-26T05:09:51.889Z,82.18
2022-09-26T05:10:52.019Z,80.89
2022-09-26T05:11:52.285Z,80.24
2022-09-26T05:12:52.300Z,81.21
2022-09-26T05:13:54.080Z,79.44
2022-09-26T05:14:53.802Z,86.37
2022-09-26T05:15:52.842Z,77.67
2022-09-26T05:16:53.105Z,80.24
2022-09-26T05:17:54.184Z,81.21
2022-09-26T05:18:53.325Z,79.28
2022-09-26T05:19:53.515Z,84.11
2022-09-26T05:20:53.695Z,82.50
2022-09-26T05:21:53.869Z,80.41
2022-09-26T05:22:54.017Z,84.43
2022-09-26T05:23:54.179Z,77.67
2022-09-26T05:24:54.323Z,80.41
2022-09-26T05:25:54.483Z,80.57
2022-09-26T05:26:54.666Z,79.60
2022-09-26T05:27:54.809Z,77.50
2022-09-26T05:28:55.777Z,79.76
2022-09-26T05:29:55.145Z,79.76
2022-09-26T05:30:55.292Z,81.69
2022-09-26T05:31:55.857Z,76.22
2022-09-26T05:32:56.272Z,79.92
2022-09-26T05:33:56.808Z,79.12
2022-09-26T05:34:55.924Z,78.63
2022-09-26T05:35:56.095Z,75.25
2022-09-26T05:36:56.254Z,79.28
2022-09-26T05:37:56.397Z,79.28
2022-09-26T05:38:56.579Z,81.05
2022-09-26T05:39:56.727Z,79.28
2022-09-26T05:40:57.026Z,78.31
2022-09-26T05:41:57.012Z,81.53
2022-09-26T05:42:57.153Z,80.89
2022-09-26T05:43:57.788Z,78.47
2022-09-26T05:44:58.278Z,81.21
2022-09-26T05:45:57.769Z,81.05
2022-09-26T05:46:58.812Z,81.05
2022-09-26T05:47:58.059Z,80.24
2022-09-26T05:48:58.776Z,81.37
2022-09-26T05:49:58.418Z,83.47
2022-09-26T05:50:58.789Z,80.08
2022-09-26T05:51:58.814Z,77.67
2022-09-26T05:52:59.293Z,79.60
2022-09-26T05:53:59.781Z,80.08
2022-09-26T05:54:59.271Z,80.73
2022-09-26T05:55:59.423Z,79.28
2022-09-26T05:56:59.573Z,80.89
2022-09-26T05:57:59.718Z,81.53
2022-09-26T05:58:59.885Z,80.89
2022-09-26T06:00:00.031Z,80.73
2022-09-26T06:01:00.818Z,82.50
2022-09-26T06:02:01.518Z,81.69
2022-09-26T06:03:00.553Z,79.28
2022-09-26T06:04:00.699Z,80.73
2022-09-26T06:05:00.843Z,78.79
2022-09-26T06:06:01.012Z,79.76
2022-09-26T06:07:01.175Z,82.34
2022-09-26T06:08:01.330Z,80.57
2022-09-26T06:09:01.500Z,79.28
2022-09-26T06:10:01.675Z,82.98
2022-09-26T06:11:01.840Z,84.43
2022-09-26T06:12:02.011Z,80.08
2022-09-26T06:13:02.167Z,80.57
2022-09-26T06:14:02.802Z,80.57
2022-09-26T06:15:02.456Z,83.63
2022-09-26T06:16:02.656Z,80.08
2022-09-26T06:17:02.817Z,78.96
2022-09-26T06:18:02.978Z,77.50
2022-09-26T06:19:03.180Z,82.98
2022-09-26T06:20:04.285Z,81.53
2022-09-26T06:21:04.289Z,78.63
2022-09-26T06:22:04.304Z,85.08
2022-09-26T06:23:03.821Z,79.60
2022-09-26T06:24:03.988Z,80.08
2022-09-26T06:25:04.150Z,83.14
2022-09-26T06:26:04.306Z,79.60
2022-09-26T06:27:04.449Z,81.21
2022-09-26T06:28:04.587Z,78.96
2022-09-26T06:29:04.748Z,81.05
2022-09-26T06:30:04.938Z,80.41
2022-09-26T06:31:05.105Z,80.24
2022-09-26T06:32:05.293Z,78.63
2022-09-26T06:33:05.466Z,78.79
2022-09-26T06:34:05.616Z,77.67
2022-09-26T06:35:06.759Z,78.79
2022-09-26T06:36:06.303Z,78.31
2022-09-26T06:37:06.057Z,81.05
2022-09-26T06:38:06.227Z,80.24
2022-09-26T06:39:06.416Z,81.37
2022-09-26T06:40:08.295Z,82.66
2022-09-26T06:41:06.774Z,78.96
2022-09-26T06:42:06.909Z,78.63
2022-09-26T06:43:07.049Z,80.08
2022-09-26T06:44:07.176Z,79.76
2022-09-26T06:45:07.338Z,81.53
2022-09-26T06:46:07.470Z,80.41
2022-09-26T06:47:07.630Z,82.02
2022-09-26T06:48:07.783Z,79.76
2022-09-26T06:49:08.027Z,81.21
2022-09-26T06:50:08.273Z,80.24
2022-09-26T06:51:09.294Z,82.98
2022-09-26T06:52:08.644Z,80.24
2022-09-26T06:53:13.443Z,78.47
2022-09-26T06:54:08.968Z,80.08
2022-09-26T06:55:09.094Z,80.24
2022-09-26T06:56:09.352Z,77.67
2022-09-26T06:57:14.198Z,76.05
2022-09-26T06:58:11.805Z,77.67
2022-09-26T06:59:10.028Z,80.73
2022-09-26T07:00:10.799Z,79.12
2022-09-26T07:01:10.376Z,78.31
2022-09-26T07:02:10.685Z,78.47
2022-09-26T07:03:10.689Z,78.31
2022-09-26T07:04:10.846Z,79.44
2022-09-26T07:05:10.976Z,77.50
2022-09-26T07:06:11.115Z,80.57
2022-09-26T07:07:11.270Z,79.28
2022-09-26T07:08:11.432Z,80.89
2022-09-26T07:09:12.734Z,78.47
2022-09-26T07:10:13.300Z,76.38
2022-09-26T07:11:34.762Z,76.38
2022-09-26T07:12:15.772Z,78.31
2022-09-26T07:13:13.809Z,80.57
2022-09-26T07:14:12.534Z,79.76
2022-09-26T07:15:13.300Z,82.18
2022-09-26T07:16:12.827Z,80.24
2022-09-26T07:17:12.991Z,76.86
2022-09-26T07:18:13.965Z,78.31
2022-09-26T07:19:14.425Z,79.44
2022-09-26T07:20:13.462Z,79.12
2022-09-26T07:21:14.309Z,74.77
2022-09-26T07:22:13.819Z,78.96
2022-09-26T07:23:13.951Z,78.79
2022-09-26T07:24:14.141Z,80.08
2022-09-26T07:25:14.209Z,79.28
2022-09-26T07:26:14.342Z,79.28
2022-09-26T07:27:14.839Z,78.31
2022-09-26T07:28:14.709Z,79.28
2022-09-26T07:29:16.020Z,78.96
2022-09-26T07:30:15.096Z,79.92
2022-09-26T07:31:15.286Z,78.31
2022-09-26T07:32:15.824Z,83.63
2022-09-26T07:33:15.617Z,79.60
2022-09-26T07:34:18.268Z,80.08
2022-09-26T07:35:17.819Z,80.57
2022-09-26T07:36:16.809Z,80.24
2022-09-26T07:37:16.347Z,77.50
2022-09-26T07:38:16.604Z,77.34
2022-09-26T07:39:16.902Z,80.41
2022-09-26T07:40:16.920Z,82.34
2022-09-26T07:41:17.071Z,82.02
2022-09-26T07:42:17.242Z,78.47
2022-09-26T07:43:24.148Z,79.28
2022-09-26T07:45:02.287Z,81.21
2022-09-26T07:45:29.468Z,76.38
2022-09-26T07:46:19.992Z,80.24
2022-09-26T07:47:18.108Z,82.82
2022-09-26T07:48:18.213Z,79.12
2022-09-26T07:49:19.403Z,77.50
2022-09-26T07:50:18.498Z,81.21
2022-09-26T07:51:19.313Z,79.76
2022-09-26T07:52:19.310Z,81.53
2022-09-26T07:53:18.952Z,77.99
2022-09-26T07:54:19.102Z,78.79
2022-09-26T07:55:19.809Z,80.24
2022-09-26T07:56:20.312Z,81.05
2022-09-26T07:57:20.317Z,76.38
2022-09-26T07:58:19.797Z,77.50
2022-09-26T07:59:19.935Z,78.15
2022-09-26T08:00:20.088Z,80.41
2022-09-26T08:01:20.278Z,78.31
2022-09-26T08:02:20.636Z,79.76
2022-09-26T08:03:20.714Z,77.67
2022-09-26T08:04:20.755Z,80.08
2022-09-26T08:05:20.899Z,76.54
2022-09-26T08:06:21.074Z,82.18
2022-09-26T08:07:21.182Z,79.76
2022-09-26T08:08:21.814Z,81.21
2022-09-26T08:09:21.427Z,81.05
2022-09-26T08:10:21.779Z,79.76
2022-09-26T08:11:22.874Z,80.08
2022-09-26T08:12:22.090Z,82.02
2022-09-26T08:13:22.274Z,106.67
2022-09-26T08:14:22.436Z,78.79
2022-09-26T08:15:22.608Z,77.50
2022-09-26T08:16:23.539Z,78.79
2022-09-26T08:17:23.825Z,80.73
2022-09-26T08:18:23.201Z,76.70
2022-09-26T08:19:23.383Z,78.63
2022-09-26T08:20:28.515Z,78.96
2022-09-26T08:21:24.662Z,79.12
2022-09-26T08:22:23.799Z,76.05
2022-09-26T08:23:23.980Z,77.99
2022-09-26T08:24:24.824Z,79.76
2022-09-26T08:25:24.825Z,80.41
2022-09-26T08:26:24.561Z,78.31
2022-09-26T08:27:25.325Z,77.99
2022-09-26T08:28:25.355Z,78.31
2022-09-26T08:29:25.094Z,77.67
2022-09-26T08:30:25.349Z,81.69
2022-09-26T08:31:26.581Z,78.79
2022-09-26T08:32:26.634Z,78.63
2022-09-26T08:33:25.857Z,81.21
2022-09-26T08:34:26.039Z,77.18
2022-09-26T08:35:26.233Z,80.57
2022-09-26T08:36:26.379Z,78.79
2022-09-26T08:37:26.509Z,77.67
2022-09-26T08:38:27.329Z,78.31
2022-09-26T08:39:31.240Z,78.79
2022-09-26T08:40:29.088Z,79.92
2022-09-26T08:41:27.133Z,77.99
2022-09-26T08:42:27.255Z,76.38
2022-09-26T08:43:27.380Z,79.44
2022-09-26T08:44:28.329Z,78.96
2022-09-26T08:45:27.847Z,78.79
2022-09-26T08:46:27.933Z,77.67
2022-09-26T08:47:28.830Z,78.79
2022-09-26T08:48:28.186Z,81.53
2022-09-26T08:49:28.336Z,77.18
2022-09-26T08:50:28.520Z,78.15
2022-09-26T08:51:29.475Z,77.50
2022-09-26T08:52:29.869Z,87.82
2022-09-26T08:53:28.999Z,78.15
2022-09-26T08:54:29.836Z,76.22
2022-09-26T08:55:29.842Z,80.89
2022-09-26T08:56:29.499Z,80.41
2022-09-26T08:57:30.329Z,78.96
2022-09-26T08:58:29.839Z,81.21
2022-09-26T08:59:30.026Z,78.31
2022-09-26T09:00:30.182Z,78.79
2022-09-26T09:01:30.453Z,79.92
2022-09-26T09:02:30.615Z,82.82
2022-09-26T09:03:30.737Z,81.53
2022-09-26T09:04:30.907Z,82.50
2022-09-26T09:05:31.076Z,79.28
2022-09-26T09:06:31.242Z,80.41
2022-09-26T09:07:31.430Z,79.76
2022-09-26T09:08:31.547Z,79.44
2022-09-26T09:09:31.711Z,79.76
2022-09-26T09:10:31.878Z,77.99
2022-09-26T09:11:32.033Z,78.96
2022-09-26T09:12:32.558Z,80.24
2022-09-26T09:13:33.848Z,79.12
2022-09-26T09:14:33.347Z,77.83
2022-09-26T09:15:32.725Z,80.08
2022-09-26T09:16:32.982Z,78.96
2022-09-26T09:17:33.106Z,79.92
2022-09-26T09:18:34.304Z,77.99
2022-09-26T09:19:34.332Z,79.92
2022-09-26T09:20:34.334Z,80.24
2022-09-26T09:21:38.028Z,79.60
2022-09-26T09:22:34.899Z,82.02
2022-09-26T09:23:34.835Z,80.89
2022-09-26T09:24:34.230Z,80.08
2022-09-26T09:25:34.423Z,79.92
2022-09-26T09:27:52.722Z,79.76
2022-09-26T09:28:37.041Z,78.63
2022-09-26T09:29:35.269Z,81.69
2022-09-26T09:30:35.444Z,78.31
2022-09-26T09:31:35.642Z,80.24
2022-09-26T09:32:35.823Z,79.76
2022-09-26T09:33:35.975Z,82.50
2022-09-26T09:34:36.125Z,80.24
2022-09-26T09:35:36.277Z,80.73
2022-09-26T09:36:36.426Z,79.60
2022-09-26T09:37:36.546Z,81.21
2022-09-26T09:38:37.347Z,79.28
2022-09-26T09:39:37.851Z,81.21
2022-09-26T09:40:37.162Z,79.12
2022-09-26T09:41:37.358Z,82.02
2022-09-26T09:42:37.348Z,78.31
2022-09-26T09:43:37.602Z,91.04
2022-09-26T09:44:37.731Z,81.69
2022-09-26T09:45:37.856Z,81.37
2022-09-26T09:46:38.053Z,78.15
2022-09-26T09:47:38.367Z,81.69
2022-09-26T09:48:38.388Z,81.21
2022-09-26T09:49:39.352Z,83.79
2022-09-26T09:50:38.727Z,79.92
2022-09-26T09:51:39.738Z,79.76
2022-09-26T09:52:39.072Z,82.50
2022-09-26T09:53:39.851Z,80.89
2022-09-26T09:54:39.338Z,79.12
2022-09-26T09:55:39.498Z,80.08
2022-09-26T09:56:40.348Z,81.53
2022-09-26T09:57:39.874Z,79.76
2022-09-26T09:58:40.868Z,78.79
2022-09-26T09:59:40.222Z,78.15
2022-09-26T10:00:40.372Z,78.79
2022-09-26T10:01:40.507Z,77.34
2022-09-26T10:02:40.916Z,82.66
2022-09-26T10:03:40.834Z,80.41
2022-09-26T10:04:40.952Z,80.89
2022-09-26T10:05:41.082Z,82.98
2022-09-26T10:06:46.068Z,80.41
2022-09-26T10:07:42.476Z,79.76
2022-09-26T10:08:41.575Z,80.57
2022-09-26T10:09:41.718Z,83.79
2022-09-26T10:10:41.859Z,78.63
2022-09-26T10:11:42.849Z,76.70
2022-09-26T10:12:42.363Z,80.08
2022-09-26T10:13:42.371Z,78.63
2022-09-26T10:14:42.537Z,79.60
2022-09-26T10:15:42.709Z,77.67
2022-09-26T10:16:42.875Z,79.76
2022-09-26T10:17:51.981Z,82.02
2022-09-26T10:18:44.145Z,79.60
2022-09-26T10:19:44.357Z,80.89
2022-09-26T10:20:43.613Z,79.28
2022-09-26T10:21:43.733Z,79.28
2022-09-26T10:22:43.865Z,78.96
2022-09-26T10:23:44.852Z,80.89
2022-09-26T10:24:44.224Z,80.73
2022-09-26T10:25:44.396Z,79.92
2022-09-26T10:26:44.537Z,82.50
2022-09-26T10:27:45.374Z,78.96
2022-09-26T10:28:44.990Z,83.47
2022-09-26T10:29:45.055Z,78.79
2022-09-26T10:30:45.258Z,81.21
2022-09-26T10:31:45.339Z,79.60
2022-09-26T10:32:45.517Z,78.15
2022-09-26T10:33:45.671Z,79.28
2022-09-26T10:34:45.825Z,82.34
2022-09-26T10:35:46.029Z,80.73
2022-09-26T10:36:46.195Z,81.05
2022-09-26T10:37:47.367Z,84.59
2022-09-26T10:38:46.487Z,78.47
2022-09-26T10:39:46.685Z,77.02
2022-09-26T10:40:46.937Z,79.12
2022-09-26T10:41:47.171Z,82.50
2022-09-26T10:42:47.253Z,78.47
2022-09-26T10:43:48.358Z,80.24
2022-09-26T10:44:48.356Z,82.02
2022-09-26T10:45:47.888Z,79.12
2022-09-26T10:46:48.018Z,81.05
2022-09-26T10:47:48.067Z,80.24
2022-09-26T10:48:48.543Z,81.86
2022-09-26T10:49:49.362Z,79.44
2022-09-26T10:50:48.647Z,82.18
2022-09-26T10:51:48.794Z,82.50
2022-09-26T10:52:48.951Z,80.08
2022-09-26T10:53:49.116Z,80.89
2022-09-26T10:54:49.302Z,81.21
2022-09-26T10:55:49.468Z,80.73
2022-09-26T10:56:49.658Z,78.15
2022-09-26T10:57:49.859Z,78.96
2022-09-26T10:58:50.069Z,82.18
2022-09-26T10:59:50.254Z,79.60
2022-09-26T11:00:51.363Z,79.28
2022-09-26T11:01:50.662Z,81.21
2022-09-26T11:02:50.779Z,80.24
2022-09-26T11:03:51.021Z,79.28
2022-09-26T11:04:51.107Z,82.02
2022-09-26T11:05:51.277Z,80.24
2022-09-26T11:06:52.371Z,81.69
2022-09-26T11:07:51.611Z,81.05
2022-09-26T11:08:51.875Z,81.05
2022-09-26T11:09:51.885Z,79.76
2022-09-26T11:10:52.876Z,81.37
2022-09-26T11:11:52.244Z,81.69
2022-09-26T11:12:52.400Z,81.69
2022-09-26T11:13:52.542Z,82.18
2022-09-26T11:14:52.664Z,78.79
2022-09-26T11:15:52.895Z,79.76
2022-09-26T11:16:53.886Z,81.37
2022-09-26T11:17:53.117Z,78.79
2022-09-26T11:18:53.378Z,79.12
2022-09-26T11:19:55.012Z,79.28
2022-09-26T11:20:54.701Z,81.37
2022-09-26T11:21:54.870Z,81.69
2022-09-26T11:22:54.110Z,82.18
2022-09-26T11:23:54.281Z,80.41
2022-09-26T11:24:54.435Z,77.99
2022-09-26T11:25:57.933Z,78.31
2022-09-26T11:26:55.752Z,79.44
2022-09-26T11:27:54.984Z,86.53
2022-09-26T11:28:55.401Z,80.57
2022-09-26T11:29:55.258Z,81.69
2022-09-26T11:30:56.407Z,80.89
2022-09-26T11:32:00.139Z,78.63
2022-09-26T11:32:56.712Z,79.92
2022-09-26T11:33:55.965Z,80.41
2022-09-26T11:34:56.113Z,80.73
2022-09-26T11:35:56.263Z,80.89
2022-09-26T11:36:56.402Z,79.12
2022-09-26T11:37:56.576Z,79.76
2022-09-26T11:38:56.738Z,81.86
2022-09-26T11:39:57.873Z,80.57
2022-09-26T11:40:57.243Z,78.47
2022-09-26T11:41:57.296Z,81.69
2022-09-26T11:42:57.452Z,79.76
2022-09-26T11:43:57.603Z,79.92
2022-09-26T11:44:58.749Z,81.37
2022-09-26T11:45:58.431Z,82.18
2022-09-26T11:46:58.079Z,78.31
2022-09-26T11:47:58.222Z,78.96
2022-09-26T11:48:58.397Z,79.76
2022-09-26T11:49:58.542Z,81.53
2022-09-26T11:50:58.718Z,81.69
2022-09-26T11:51:58.899Z,80.41
2022-09-26T11:52:59.050Z,79.76
2022-09-26T11:53:59.198Z,81.86
2022-09-26T11:54:59.376Z,80.41
2022-09-26T11:55:59.504Z,79.92
2022-09-26T11:56:59.653Z,80.73
2022-09-26T11:58:03.232Z,82.98
2022-09-26T11:59:00.878Z,80.73
2022-09-26T12:00:00.156Z,78.96
2022-09-26T12:01:00.895Z,79.44
2022-09-26T12:02:00.558Z,79.28
2022-09-26T12:03:00.884Z,82.98
2022-09-26T12:04:01.070Z,80.89
2022-09-26T12:05:01.903Z,79.28
2022-09-26T12:06:01.287Z,79.76
2022-09-26T12:07:02.381Z,87.33
2022-09-26T12:08:02.386Z,81.53
2022-09-26T12:09:01.771Z,79.60
2022-09-26T12:10:01.948Z,82.66
2022-09-26T12:11:02.118Z,79.12
2022-09-26T12:12:02.279Z,79.92
2022-09-26T12:13:03.384Z,81.21
2022-09-26T12:14:02.625Z,84.27
2022-09-26T12:15:02.769Z,81.05
2022-09-26T12:16:03.007Z,81.69
2022-09-26T12:17:03.098Z,78.96
2022-09-26T12:18:03.271Z,84.11
2022-09-26T12:19:04.387Z,77.50
2022-09-26T12:20:03.638Z,81.37
2022-09-26T12:21:04.385Z,81.21
2022-09-26T12:22:04.053Z,77.99
2022-09-26T12:23:04.887Z,82.02
2022-09-26T12:24:04.403Z,85.88
2022-09-26T12:25:05.385Z,80.24
2022-09-26T12:26:04.798Z,80.89
2022-09-26T12:27:04.955Z,79.12
2022-09-26T12:28:05.117Z,78.96
2022-09-26T12:29:05.276Z,80.89
2022-09-26T12:30:06.396Z,82.34
2022-09-26T12:31:05.984Z,81.53
2022-09-26T12:32:05.800Z,80.57
2022-09-26T12:33:06.886Z,77.50
2022-09-26T12:34:06.185Z,81.86
2022-09-26T12:35:06.363Z,81.69
2022-09-26T12:36:06.552Z,78.47
2022-09-26T12:37:06.716Z,77.67
2022-09-26T12:38:06.846Z,80.73
2022-09-26T12:39:07.073Z,81.05
2022-09-26T12:40:07.132Z,82.34
2022-09-26T12:41:07.889Z,81.21
2022-09-26T12:42:07.541Z,79.92
2022-09-26T12:43:08.389Z,77.18
2022-09-26T12:44:07.934Z,79.60
2022-09-26T12:45:08.076Z,82.34
2022-09-26T12:46:08.338Z,82.02
2022-09-26T12:47:08.452Z,81.05
2022-09-26T12:48:08.633Z,79.44
2022-09-26T12:49:08.802Z,78.96
2022-09-26T12:50:09.927Z,78.15
2022-09-26T12:51:09.248Z,79.92
2022-09-26T12:52:09.417Z,80.24
2022-09-26T12:53:09.609Z,80.08
2022-09-26T12:54:09.846Z,78.79
2022-09-26T12:55:10.020Z,81.86